createdAt,value
2022-10-01T00:01:44.299Z,52.67
2022-10-01T00:04:11.399Z,50.15
2022-10-01T00:06:38.433Z,52.22
2022-10-01T00:09:05.595Z,58.40
2022-10-01T00:11:34.806Z,43.22
2022-10-01T00:14:04.851Z,55.85
2022-10-01T00:16:32.232Z,58.38
2022-10-01T00:19:01.078Z,60.22
2022-10-01T00:21:32.073Z,58.20
2022-10-01T00:24:03.793Z,56.90
2022-10-01T00:26:33.593Z,59.85
2022-10-01T00:29:07.069Z,55.88
2022-10-01T00:31:34.611Z,58.97
2022-10-01T00:34:05.483Z,71.20
2022-10-01T00:36:33.879Z,63.35
2022-10-01T00:39:01.086Z,66.47
2022-10-01T00:41:34.775Z,70.20
2022-10-01T00:44:23.274Z,67.07
2022-10-01T00:46:50.695Z,64.22
2022-10-01T00:49:24.675Z,66.32
2022-10-01T00:51:58.858Z,69.03
2022-10-01T00:54:51.078Z,69.53
2022-10-01T00:57:22.300Z,63.08
2022-10-01T00:59:50.819Z,61.28
2022-10-01T01:02:17.951Z,68.07
2022-10-01T01:04:45.204Z,67.25
2022-10-01T01:07:13.325Z,67.15
2022-10-01T01:09:47.596Z,71.05
2022-10-01T01:12:42.654Z,69.45
2022-10-01T01:15:28.842Z,62.53
2022-10-01T01:18:14.394Z,67.90
2022-10-01T01:20:47.535Z,50.80
2022-10-01T01:23:17.617Z,54.22
2022-10-01T01:25:58.886Z,57.25
2022-10-01T01:28:37.599Z,60.75
2022-10-01T01:31:10.897Z,63.17
2022-10-01T01:33:40.369Z,61.60
2022-10-01T01:36:16.672Z,45.05
2022-10-01T01:38:49.704Z,56.95
2022-10-01T01:41:19.334Z,57.85
2022-10-01T01:43:51.666Z,50.55
2022-10-01T01:46:20.691Z,59.85
2022-10-01T01:48:53.661Z,58.67
2022-10-01T01:51:45.960Z,57.92
2022-10-01T01:54:13.101Z,56.53
2022-10-01T01:56:40.095Z,57.85
2022-10-01T01:59:08.799Z,56.90
2022-10-01T02:01:42.260Z,56.25
2022-10-01T02:04:32.806Z,55.67
2022-10-01T02:07:24.092Z,50.10
2022-10-01T02:10:01.006Z,60.75
2022-10-01T02:13:04.218Z,61.80
2022-10-01T02:15:41.794Z,57.42
2022-10-01T02:18:39.383Z,58.83
2022-10-01T02:21:31.220Z,69.38
2022-10-01T02:24:01.730Z,58.35
2022-10-01T02:26:31.681Z,55.75
2022-10-01T02:29:07.339Z,65.30
2022-10-01T02:31:36.333Z,52.28
2022-10-01T02:34:11.063Z,62.30
2022-10-01T02:36:42.390Z,62.47
2022-10-01T02:39:10.667Z,62.40
2022-10-01T02:41:38.215Z,52.00
2022-10-01T02:44:10.983Z,48.85
2022-10-01T02:46:46.322Z,62.13
2022-10-01T02:49:13.762Z,55.58
2022-10-01T02:51:53.806Z,67.47
2022-10-01T02:54:31.576Z,52.73
2022-10-01T02:57:17.698Z,54.65
2022-10-01T02:59:44.897Z,53.83
2022-10-01T03:02:12.296Z,59.20
2022-10-01T03:04:39.435Z,60.08
2022-10-01T03:07:06.612Z,69.45
2022-10-01T03:09:35.286Z,50.67
2022-10-01T03:12:02.764Z,60.83
2022-10-01T03:14:29.731Z,65.05
2022-10-01T03:16:56.731Z,62.00
2022-10-01T03:19:23.710Z,70.53
2022-10-01T03:21:50.704Z,49.65
2022-10-01T03:24:17.718Z,66.70
2022-10-01T03:26:45.584Z,70.68
2022-10-01T03:29:13.610Z,68.72
2022-10-01T03:31:40.768Z,56.40
2022-10-01T03:34:07.818Z,62.28
2022-10-01T03:36:34.871Z,57.53
2022-10-01T03:39:01.813Z,49.70
2022-10-01T03:41:28.677Z,55.63
2022-10-01T03:44:00.268Z,57.75
2022-10-01T03:46:27.595Z,59.90
2022-10-01T03:48:57.580Z,76.68
2022-10-01T03:51:24.925Z,71.37
2022-10-01T03:53:51.913Z,67.07
2022-10-01T03:56:18.901Z,50.47
2022-10-01T03:58:45.836Z,52.70
2022-10-01T04:01:12.821Z,61.60
2022-10-01T04:03:40.485Z,68.80
2022-10-01T04:06:07.868Z,61.95
2022-10-01T04:08:34.940Z,72.10
2022-10-01T04:11:02.036Z,84.55
2022-10-01T04:13:30.275Z,84.90
2022-10-01T04:15:57.335Z,78.47
2022-10-01T04:18:24.571Z,70.38
2022-10-01T04:20:51.755Z,62.72
2022-10-01T04:23:18.757Z,63.25
2022-10-01T04:25:45.867Z,78.65
2022-10-01T04:28:14.711Z,88.95
2022-10-01T04:30:43.525Z,77.40
2022-10-01T04:33:17.797Z,65.07
2022-10-01T04:35:44.932Z,85.35
2022-10-01T04:38:15.670Z,74.03
2022-10-01T04:40:42.686Z,73.15
2022-10-01T04:43:10.091Z,68.38
2022-10-01T04:45:38.444Z,72.90
2022-10-01T04:48:05.847Z,78.28
2022-10-01T04:50:33.235Z,69.68
2022-10-01T04:53:00.305Z,62.53
2022-10-01T04:55:27.469Z,67.97
2022-10-01T04:57:54.492Z,67.25
2022-10-01T05:00:26.200Z,65.75
2022-10-01T05:02:53.835Z,67.70
2022-10-01T05:05:23.687Z,84.32
2022-10-01T05:07:51.406Z,77.95
2022-10-01T05:10:21.899Z,97.95
2022-10-01T05:12:52.154Z,77.60
2022-10-01T05:15:19.484Z,73.45
2022-10-01T05:17:47.183Z,66.35
2022-10-01T05:20:19.952Z,56.97
2022-10-01T05:22:47.815Z,65.25
2022-10-01T05:25:15.213Z,70.35
2022-10-01T05:27:42.439Z,71.93
2022-10-01T05:30:11.141Z,74.65
2022-10-01T05:32:39.032Z,81.53
2022-10-01T05:35:07.634Z,63.03
2022-10-01T05:37:35.549Z,72.28
2022-10-01T05:40:02.808Z,62.83
2022-10-01T05:42:29.761Z,84.20
2022-10-01T05:44:57.141Z,83.07
2022-10-01T05:47:24.093Z,83.35
2022-10-01T05:49:51.001Z,60.47
2022-10-01T05:52:18.231Z,62.50
2022-10-01T05:54:45.192Z,68.13
2022-10-01T05:57:15.027Z,71.93
2022-10-01T05:59:41.960Z,66.32
2022-10-01T06:02:10.261Z,78.07
2022-10-01T06:04:41.062Z,60.00
2022-10-01T06:07:08.564Z,65.43
2022-10-01T06:09:35.529Z,81.88
2022-10-01T06:12:02.997Z,94.63
2022-10-01T06:14:30.154Z,77.03
2022-10-01T06:16:57.189Z,64.88
2022-10-01T06:19:24.196Z,63.97
2022-10-01T06:21:52.097Z,62.53
2022-10-01T06:24:19.211Z,62.15
2022-10-01T06:26:46.136Z,59.55
2022-10-01T06:29:13.217Z,64.40
2022-10-01T06:31:40.465Z,70.05
2022-10-01T06:34:07.500Z,60.05
2022-10-01T06:36:34.510Z,73.18
2022-10-01T06:39:01.597Z,73.35
2022-10-01T06:41:28.499Z,66.03
2022-10-01T06:43:55.469Z,76.53
2022-10-01T06:46:22.595Z,67.20
2022-10-01T06:48:50.136Z,50.78
2022-10-01T06:51:37.113Z,55.60
2022-10-01T06:54:05.077Z,47.35
2022-10-01T06:56:31.996Z,48.10
2022-10-01T06:58:58.950Z,48.92
2022-10-01T07:01:25.955Z,56.25
2022-10-01T07:03:54.584Z,47.00
2022-10-01T07:06:21.732Z,56.40
2022-10-01T07:08:53.348Z,50.78
2022-10-01T07:11:20.749Z,45.85
2022-10-01T07:13:51.138Z,48.03
2022-10-01T07:16:21.257Z,46.55
2022-10-01T07:18:48.296Z,46.10
2022-10-01T07:21:15.319Z,45.72
2022-10-01T07:23:42.304Z,48.17
2022-10-01T07:26:09.844Z,41.42
2022-10-01T07:28:36.959Z,45.13
2022-10-01T07:31:07.645Z,36.30
2022-10-01T07:33:34.678Z,36.40
2022-10-01T07:36:07.915Z,36.53
2022-10-01T07:38:35.294Z,35.30
2022-10-01T07:41:03.732Z,38.97
2022-10-01T07:43:32.225Z,32.47
2022-10-01T07:46:00.527Z,30.50
2022-10-01T07:48:28.330Z,32.17
2022-10-01T07:50:55.452Z,37.78
2022-10-01T07:53:25.088Z,38.10
2022-10-01T07:55:52.440Z,39.30
2022-10-01T07:58:22.367Z,39.53
2022-10-01T08:00:49.358Z,34.10
2022-10-01T08:03:16.381Z,42.13
2022-10-01T08:05:43.753Z,39.75
2022-10-01T08:08:10.907Z,38.38
2022-10-01T08:10:39.066Z,39.67
2022-10-01T08:13:16.926Z,39.03
2022-10-01T08:15:53.780Z,37.35
2022-10-01T08:18:24.183Z,42.17
2022-10-01T08:20:51.162Z,46.63
2022-10-01T08:23:18.234Z,41.42
2022-10-01T08:25:46.111Z,42.72
2022-10-01T08:28:13.390Z,40.72
2022-10-01T08:30:42.766Z,40.88
2022-10-01T08:33:14.510Z,47.40
2022-10-01T08:35:43.860Z,49.15
2022-10-01T08:38:12.312Z,46.25
2022-10-01T08:40:51.545Z,45.58
2022-10-01T08:43:38.671Z,42.35
2022-10-01T08:46:16.725Z,42.80
2022-10-01T08:49:00.845Z,37.88
2022-10-01T08:51:38.656Z,44.30
2022-10-01T08:54:34.855Z,40.22
2022-10-01T08:57:05.273Z,41.60
2022-10-01T08:59:43.423Z,41.53
2022-10-01T09:02:32.465Z,35.20
2022-10-01T09:05:03.419Z,39.70
2022-10-01T09:07:40.029Z,35.30
2022-10-01T09:10:27.617Z,31.88
2022-10-01T09:13:06.891Z,33.08
2022-10-01T09:15:44.662Z,30.85
2022-10-01T09:18:34.400Z,33.88
2022-10-01T09:21:01.454Z,35.60
2022-10-01T09:23:38.060Z,35.47
2022-10-01T09:26:10.139Z,32.75
2022-10-01T09:28:40.437Z,36.88
2022-10-01T09:31:32.163Z,29.67
2022-10-01T09:34:09.165Z,29.92
2022-10-01T09:36:36.181Z,30.08
2022-10-01T09:39:11.949Z,28.52
2022-10-01T09:41:39.137Z,30.13
2022-10-01T09:44:18.547Z,29.20
2022-10-01T09:46:47.123Z,28.80
2022-10-01T09:49:44.073Z,29.25
2022-10-01T09:52:33.828Z,28.50
2022-10-01T09:55:18.288Z,29.40
2022-10-01T09:57:54.138Z,30.45
2022-10-01T10:00:23.567Z,28.75
2022-10-01T10:02:52.780Z,27.60
2022-10-01T10:05:40.077Z,28.15
2022-10-01T10:08:14.949Z,27.13
2022-10-01T10:10:58.651Z,26.02
2022-10-01T10:13:35.422Z,21.58
2022-10-01T10:16:20.873Z,20.38
2022-10-01T10:18:52.566Z,20.58
2022-10-01T10:21:25.746Z,19.95
2022-10-01T10:23:56.096Z,17.20
2022-10-01T10:26:32.873Z,16.35
2022-10-01T10:29:04.929Z,18.65
2022-10-01T10:31:45.959Z,15.02
2022-10-01T10:34:21.838Z,14.13
2022-10-01T10:36:49.030Z,14.20
2022-10-01T10:39:29.450Z,12.05
2022-10-01T10:41:58.418Z,11.75
2022-10-01T10:44:30.614Z,11.20
2022-10-01T10:47:02.149Z,10.57
2022-10-01T10:49:36.049Z,10.88
2022-10-01T10:52:03.010Z,10.30
2022-10-01T10:54:41.097Z,8.52
2022-10-01T10:57:26.372Z,9.38
2022-10-01T11:00:00.628Z,10.02
2022-10-01T11:02:32.333Z,7.95
2022-10-01T11:05:22.231Z,9.73
2022-10-01T11:07:53.459Z,7.35
2022-10-01T11:10:23.604Z,7.78
2022-10-01T11:13:15.772Z,8.18
2022-10-01T11:15:52.639Z,9.25
2022-10-01T11:18:30.508Z,12.45
2022-10-01T11:20:57.459Z,8.40
2022-10-01T11:23:34.447Z,8.38
2022-10-01T11:26:13.600Z,11.18
2022-10-01T11:29:19.686Z,9.07
2022-10-01T11:31:55.605Z,9.20
2022-10-01T11:34:50.654Z,8.82
2022-10-01T11:38:00.135Z,7.75
2022-10-01T11:40:39.949Z,10.20
2022-10-01T11:43:28.221Z,7.65
2022-10-01T11:46:01.301Z,7.47
2022-10-01T11:48:38.618Z,6.68
2022-10-01T11:51:24.101Z,6.20
2022-10-01T11:54:01.412Z,6.05
2022-10-01T11:56:52.586Z,6.70
2022-10-01T11:59:29.866Z,7.13
2022-10-01T12:02:25.593Z,7.38
2022-10-01T12:05:00.412Z,6.60
2022-10-01T12:07:39.191Z,7.38
2022-10-01T12:10:29.276Z,6.70
2022-10-01T12:13:22.787Z,7.20
2022-10-01T12:16:25.117Z,7.57
2022-10-01T12:18:58.343Z,7.05
2022-10-01T12:21:49.994Z,8.23
2022-10-01T12:24:20.138Z,8.30
2022-10-01T12:26:55.035Z,7.25
2022-10-01T12:29:31.263Z,8.05
2022-10-01T12:32:10.413Z,7.65
2022-10-01T12:34:49.430Z,10.65
2022-10-01T12:37:25.170Z,8.90
2022-10-01T12:40:07.476Z,9.38
2022-10-01T12:43:04.240Z,9.45
2022-10-01T12:45:56.472Z,8.20
2022-10-01T12:48:40.147Z,8.55
2022-10-01T12:51:19.294Z,9.25
2022-10-01T12:54:11.567Z,10.25
2022-10-01T12:56:57.903Z,9.70
2022-10-01T12:59:42.978Z,10.75
2022-10-01T13:02:34.637Z,12.15
2022-10-01T13:05:20.604Z,12.77
2022-10-01T13:08:26.086Z,13.55
2022-10-01T13:11:20.903Z,14.10
2022-10-01T13:13:52.840Z,13.05
2022-10-01T13:16:28.696Z,14.13
2022-10-01T13:19:31.290Z,12.88
2022-10-01T13:22:23.404Z,11.80
2022-10-01T13:25:01.590Z,12.82
2022-10-01T13:27:39.593Z,10.90
2022-10-01T13:30:28.241Z,12.43
2022-10-01T13:33:01.327Z,14.18
2022-10-01T13:35:35.185Z,14.68
2022-10-01T13:38:15.803Z,13.63
2022-10-01T13:40:43.259Z,15.43
2022-10-01T13:43:23.397Z,13.85
2022-10-01T13:45:54.067Z,14.25
2022-10-01T13:51:03.375Z,14.20
2022-10-01T13:53:37.258Z,13.55
2022-10-01T13:56:05.859Z,14.85
2022-10-01T13:58:40.331Z,13.27
2022-10-01T14:01:31.571Z,13.45
2022-10-01T14:04:05.522Z,15.50
2022-10-01T14:06:35.737Z,16.90
2022-10-01T14:09:19.213Z,15.95
2022-10-01T14:12:09.569Z,12.88
2022-10-01T14:15:01.125Z,12.98
2022-10-01T14:17:32.898Z,13.93
2022-10-01T14:20:01.387Z,15.00
2022-10-01T14:22:34.212Z,15.45
2022-10-01T14:25:22.809Z,16.63
2022-10-01T14:28:14.526Z,14.35
2022-10-01T14:30:44.433Z,14.70
2022-10-01T14:33:14.392Z,15.50
2022-10-01T14:35:41.412Z,14.10
2022-10-01T14:38:15.659Z,12.40
2022-10-01T14:40:46.119Z,13.68
2022-10-01T14:43:31.482Z,18.83
2022-10-01T14:46:04.457Z,14.93
2022-10-01T14:48:36.979Z,15.07
2022-10-01T14:51:07.670Z,13.15
2022-10-01T14:56:10.401Z,15.68
2022-10-01T14:58:42.001Z,14.45
2022-10-01T15:01:18.817Z,15.93
2022-10-01T15:03:46.459Z,15.20
2022-10-01T15:06:17.410Z,19.63
2022-10-01T15:08:52.228Z,15.98
2022-10-01T15:11:31.012Z,13.50
2022-10-01T15:14:04.307Z,15.85
2022-10-01T15:16:33.642Z,17.42
2022-10-01T15:19:04.199Z,16.85
2022-10-01T15:21:52.922Z,18.67
2022-10-01T15:24:30.785Z,16.10
2022-10-01T15:26:59.013Z,17.65
2022-10-01T15:29:25.971Z,17.13
2022-10-01T15:31:55.086Z,17.17
2022-10-01T15:34:24.584Z,15.85
2022-10-01T15:36:52.562Z,16.42
2022-10-01T15:39:22.245Z,19.83
2022-10-01T15:41:53.775Z,20.27
2022-10-01T15:44:50.554Z,19.48
2022-10-01T15:47:20.916Z,21.67
2022-10-01T15:50:18.484Z,21.25
2022-10-01T15:52:50.908Z,18.42
2022-10-01T15:55:30.854Z,21.95
2022-10-01T15:58:11.865Z,21.25
2022-10-01T16:00:51.071Z,20.63
2022-10-01T16:03:23.725Z,24.10
2022-10-01T16:05:55.195Z,19.85
2022-10-01T16:08:34.575Z,21.13
2022-10-01T16:11:13.472Z,22.13
2022-10-01T16:13:42.185Z,23.67
2022-10-01T16:16:29.951Z,25.27
2022-10-01T16:19:22.157Z,34.40
2022-10-01T16:22:20.133Z,30.67
2022-10-01T16:24:58.478Z,27.55
2022-10-01T16:27:28.816Z,26.42
2022-10-01T16:30:04.751Z,26.13
2022-10-01T16:32:32.227Z,28.70
2022-10-01T16:35:21.094Z,26.60
2022-10-01T16:37:50.466Z,25.33
2022-10-01T16:40:18.670Z,29.02
2022-10-01T16:42:46.881Z,30.88
2022-10-01T16:45:25.008Z,30.05
2022-10-01T16:47:53.261Z,30.77
2022-10-01T16:50:22.138Z,32.88
2022-10-01T16:52:53.148Z,29.02
2022-10-01T16:55:23.923Z,30.23
2022-10-01T17:00:20.880Z,25.60
2022-10-01T17:02:47.921Z,27.13
2022-10-01T17:05:32.692Z,29.40
2022-10-01T17:08:01.452Z,27.08
2022-10-01T17:10:31.365Z,29.83
2022-10-01T17:12:59.909Z,24.55
2022-10-01T17:15:28.259Z,27.13
2022-10-01T17:17:57.201Z,32.80
2022-10-01T17:20:26.660Z,34.40
2022-10-01T17:22:53.587Z,47.58
2022-10-01T17:25:35.899Z,34.50
2022-10-01T17:28:05.957Z,36.28
2022-10-01T17:30:33.520Z,34.22
2022-10-01T17:33:01.948Z,36.33
2022-10-01T17:35:30.103Z,33.55
2022-10-01T17:37:57.385Z,33.33
2022-10-01T17:40:24.348Z,36.78
2022-10-01T17:42:51.470Z,34.85
2022-10-01T17:45:18.432Z,35.33
2022-10-01T17:47:46.858Z,38.22
2022-10-01T17:50:15.303Z,38.15
2022-10-01T17:52:42.717Z,37.38
2022-10-01T17:55:09.837Z,39.47
2022-10-01T17:57:36.927Z,32.97
2022-10-01T18:00:05.443Z,38.05
2022-10-01T18:02:47.240Z,41.30
2022-10-01T18:05:15.272Z,34.78
2022-10-01T18:07:42.690Z,36.63
2022-10-01T18:10:12.821Z,41.05
2022-10-01T18:12:40.506Z,44.90
2022-10-01T18:15:08.006Z,57.50
2022-10-01T18:17:36.686Z,67.65
2022-10-01T18:20:06.275Z,72.57
2022-10-01T18:22:34.069Z,80.32
2022-10-01T18:25:01.658Z,75.50
2022-10-01T18:27:28.555Z,67.95
2022-10-01T18:29:55.539Z,63.30
2022-10-01T18:32:23.945Z,65.18
2022-10-01T18:35:01.681Z,67.95
2022-10-01T18:37:49.884Z,60.08
2022-10-01T18:40:23.846Z,58.35
2022-10-01T18:43:07.758Z,72.20
2022-10-01T18:45:37.496Z,60.65
2022-10-01T18:48:19.348Z,73.35
2022-10-01T18:50:46.167Z,77.57
2022-10-01T18:53:50.849Z,63.42
2022-10-01T18:56:38.103Z,63.33
2022-10-01T18:59:29.729Z,57.70
2022-10-01T19:02:34.472Z,61.70
2022-10-01T19:05:27.103Z,60.30
2022-10-01T19:08:39.034Z,73.63
2022-10-01T19:11:08.977Z,74.40
2022-10-01T19:13:54.020Z,75.07
2022-10-01T19:16:34.011Z,76.90
2022-10-01T19:19:11.671Z,76.13
2022-10-01T19:21:51.686Z,73.55
2022-10-01T19:24:45.102Z,73.67
2022-10-01T19:27:44.430Z,73.68
2022-10-01T19:30:15.950Z,74.38
2022-10-01T19:32:54.220Z,61.83
2022-10-01T19:35:22.483Z,68.40
2022-10-01T19:37:55.558Z,71.13
2022-10-01T19:40:33.495Z,66.40
2022-10-01T19:43:16.575Z,64.97
2022-10-01T19:46:09.681Z,52.80
2022-10-01T19:49:05.202Z,62.70
2022-10-01T19:51:47.274Z,62.47
2022-10-01T19:54:18.384Z,60.03
2022-10-01T19:56:49.115Z,66.95
2022-10-01T20:01:52.960Z,62.70
2022-10-01T20:04:23.761Z,67.25
2022-10-01T20:09:35.362Z,77.75
2022-10-01T20:12:09.209Z,69.05
2022-10-01T20:15:30.515Z,74.80
2022-10-01T20:18:00.584Z,61.97
2022-10-01T20:21:06.696Z,73.57
2022-10-01T20:23:40.581Z,62.85
2022-10-01T20:26:44.604Z,66.90
2022-10-01T20:29:26.741Z,76.20
2022-10-01T20:32:11.475Z,56.92
2022-10-01T20:35:00.969Z,58.50
2022-10-01T20:37:52.630Z,69.57
2022-10-01T20:40:33.242Z,76.90
2022-10-01T20:43:18.703Z,77.82
2022-10-01T20:45:50.205Z,79.30
2022-10-01T20:48:24.461Z,64.80
2022-10-01T20:50:58.835Z,60.53
2022-10-01T20:53:41.010Z,71.35
2022-10-01T20:56:36.839Z,65.43
2022-10-01T20:59:30.170Z,55.05
2022-10-01T21:02:03.349Z,68.72
2022-10-01T21:04:43.234Z,67.15
2022-10-01T21:07:32.086Z,67.90
2022-10-01T21:10:04.002Z,65.30
2022-10-01T21:12:38.538Z,58.30
2022-10-01T21:15:07.719Z,70.60
2022-10-01T21:18:09.474Z,72.45
2022-10-01T21:20:36.426Z,65.47
2022-10-01T21:23:19.091Z,61.88
2022-10-01T21:26:04.682Z,65.68
2022-10-01T21:28:49.604Z,61.17
2022-10-01T21:31:40.848Z,65.03
2022-10-01T21:34:34.027Z,64.38
2022-10-01T21:37:23.412Z,71.38
2022-10-01T21:40:15.045Z,67.00
2022-10-01T21:43:01.554Z,69.50
2022-10-01T21:45:47.280Z,52.33
2022-10-01T21:48:35.858Z,57.58
2022-10-01T21:51:02.795Z,55.72
2022-10-01T21:53:30.502Z,50.45
2022-10-01T21:56:21.838Z,47.05
2022-10-01T21:59:22.542Z,45.88
2022-10-01T22:02:02.078Z,27.80
2022-10-01T22:04:38.673Z,25.25
2022-10-01T22:07:32.816Z,25.08
2022-10-01T22:10:13.738Z,23.20
2022-10-01T22:15:23.703Z,26.83
2022-10-01T22:17:54.038Z,24.35
2022-10-01T22:20:28.192Z,24.00
2022-10-01T22:22:59.066Z,21.58
2022-10-01T22:25:27.039Z,25.88
2022-10-01T22:28:13.689Z,25.40
2022-10-01T22:30:42.711Z,31.80
2022-10-01T22:33:22.644Z,29.95
2022-10-01T22:35:55.644Z,28.00
2022-10-01T22:38:29.949Z,26.98
2022-10-01T22:41:20.499Z,24.00
2022-10-01T22:43:47.932Z,28.77
2022-10-01T22:46:36.373Z,33.05
2022-10-01T22:49:28.314Z,25.83
2022-10-01T22:52:07.365Z,26.85
2022-10-01T22:54:40.250Z,31.60
2022-10-01T22:57:15.701Z,25.67
2022-10-01T22:59:48.483Z,25.08
2022-10-01T23:02:18.738Z,21.20
2022-10-01T23:05:04.122Z,26.30
2022-10-01T23:07:33.647Z,18.85
2022-10-01T23:10:28.615Z,15.90
2022-10-01T23:13:05.691Z,17.52
2022-10-01T23:15:41.920Z,15.80
2022-10-01T23:18:27.135Z,17.77
2022-10-01T23:20:54.374Z,16.15
2022-10-01T23:23:24.099Z,18.70
2022-10-01T23:26:06.170Z,15.95
2022-10-01T23:28:51.430Z,18.80
2022-10-01T23:31:18.318Z,16.70
2022-10-01T23:34:04.093Z,19.80
2022-10-01T23:36:53.877Z,16.02
2022-10-01T23:39:35.985Z,15.18
2022-10-01T23:42:48.932Z,13.40
2022-10-01T23:45:34.683Z,21.33
2022-10-01T23:48:42.150Z,16.92
2022-10-01T23:51:22.065Z,14.57
2022-10-01T23:54:03.478Z,18.92
2022-10-01T23:56:48.923Z,21.00
2022-10-01T23:59:45.325Z,19.50
